sensor_id;sensor_type;location;lat;lon;timestamp;pressure;altitude;pressure_sealevel;temperature;humidity
69780;BME280;57052;55.602;38.096;2023-10-19T00:00:37;99424.06;;;7.59;74.05
69780;BME280;57052;55.602;38.096;2023-10-19T00:03:06;99419.75;;;7.58;75.22
69780;BME280;57052;55.602;38.096;2023-10-19T00:05:33;99421.63;;;7.57;74.41
69780;BME280;57052;55.602;38.096;2023-10-19T00:08:00;99420.81;;;7.57;74.25
69780;BME280;57052;55.602;38.096;2023-10-19T00:10:30;99418.94;;;7.57;74.45
69780;BME280;57052;55.602;38.096;2023-10-19T00:13:01;99425.16;;;7.58;74.29
69780;BME280;57052;55.602;38.096;2023-10-19T00:15:32;99418.69;;;7.59;74.42
69780;BME280;57052;55.602;38.096;2023-10-19T00:18:00;99402.78;;;7.52;75.13
69780;BME280;57052;55.602;38.096;2023-10-19T00:20:49;99417.88;;;7.58;74.47
69780;BME280;57052;55.602;38.096;2023-10-19T00:23:20;99422.16;;;7.59;75.02
69780;BME280;57052;55.602;38.096;2023-10-19T00:26:05;99419.47;;;7.59;75.27
69780;BME280;57052;55.602;38.096;2023-10-19T00:28:34;99421.38;;;7.59;75.29
69780;BME280;57052;55.602;38.096;2023-10-19T00:31:04;99421.09;;;7.60;75.07
69780;BME280;57052;55.602;38.096;2023-10-19T00:33:34;99408.16;;;7.52;74.68
69780;BME280;57052;55.602;38.096;2023-10-19T00:36:05;99416.25;;;7.57;74.65
69780;BME280;57052;55.602;38.096;2023-10-19T00:38:41;99403.31;;;7.54;75.06
69780;BME280;57052;55.602;38.096;2023-10-19T00:41:26;99413.03;;;7.40;75.75
69780;BME280;57052;55.602;38.096;2023-10-19T00:43:55;99411.97;;;7.51;75.05
69780;BME280;57052;55.602;38.096;2023-10-19T00:46:28;99410.63;;;7.54;75.29
69780;BME280;57052;55.602;38.096;2023-10-19T00:49:16;99411.41;;;7.54;75.20
69780;BME280;57052;55.602;38.096;2023-10-19T00:51:45;99417.59;;;7.55;75.18
69780;BME280;57052;55.602;38.096;2023-10-19T00:54:32;99411.41;;;7.54;75.52
69780;BME280;57052;55.602;38.096;2023-10-19T00:57:01;99413.03;;;7.55;75.05
69780;BME280;57052;55.602;38.096;2023-10-19T00:59:37;99409.50;;;7.50;74.86
69780;BME280;57052;55.602;38.096;2023-10-19T01:02:13;99408.44;;;7.56;75.02
69780;BME280;57052;55.602;38.096;2023-10-19T01:04:44;99417.34;;;7.56;74.46
69780;BME280;57052;55.602;38.096;2023-10-19T01:07:11;99418.13;;;7.57;75.11
69780;BME280;57052;55.602;38.096;2023-10-19T01:09:49;99410.06;;;7.57;74.60
69780;BME280;57052;55.602;38.096;2023-10-19T01:12:22;99413.03;;;7.55;75.20
69780;BME280;57052;55.602;38.096;2023-10-19T01:17:35;99406.81;;;7.55;74.84
69780;BME280;57052;55.602;38.096;2023-10-19T01:20:16;99406.28;;;7.53;75.02
69780;BME280;57052;55.602;38.096;2023-10-19T01:23:07;99405.22;;;7.54;75.57
69780;BME280;57052;55.602;38.096;2023-10-19T01:25:58;99405.22;;;7.54;75.16
69780;BME280;57052;55.602;38.096;2023-10-19T01:30:54;99413.56;;;7.57;74.80
69780;BME280;57052;55.602;38.096;2023-10-19T01:33:21;99404.66;;;7.57;74.60
69780;BME280;57052;55.602;38.096;2023-10-19T01:35:49;99391.47;;;7.50;75.04
69780;BME280;57052;55.602;38.096;2023-10-19T01:38:33;99392.00;;;7.47;75.33
69780;BME280;57052;55.602;38.096;2023-10-19T01:41:04;99406.28;;;7.58;75.57
69780;BME280;57052;55.602;38.096;2023-10-19T01:43:50;99399.84;;;7.59;75.57
69780;BME280;57052;55.602;38.096;2023-10-19T01:46:20;99377.75;;;7.42;75.07
69780;BME280;57052;55.602;38.096;2023-10-19T01:48:51;99398.50;;;7.61;75.90
69780;BME280;57052;55.602;38.096;2023-10-19T01:51:27;99366.97;;;7.37;75.30
69780;BME280;57052;55.602;38.096;2023-10-19T01:53:55;99403.59;;;7.58;75.48
69780;BME280;57052;55.602;38.096;2023-10-19T01:56:22;99391.19;;;7.52;74.57
69780;BME280;57052;55.602;38.096;2023-10-19T01:58:49;99404.13;;;7.60;75.40
69780;BME280;57052;55.602;38.096;2023-10-19T02:01:17;99405.75;;;7.61;74.59
69780;BME280;57052;55.602;38.096;2023-10-19T02:03:47;99401.97;;;7.62;75.42
69780;BME280;57052;55.602;38.096;2023-10-19T02:06:20;99405.47;;;7.62;75.07
69780;BME280;57052;55.602;38.096;2023-10-19T02:09:01;99397.41;;;7.62;74.83
69780;BME280;57052;55.602;38.096;2023-10-19T02:11:35;99400.91;;;7.63;75.63
69780;BME280;57052;55.602;38.096;2023-10-19T02:14:07;99396.88;;;7.45;75.92
69780;BME280;57052;55.602;38.096;2023-10-19T02:16:55;99392.81;;;7.58;75.62
69780;BME280;57052;55.602;38.096;2023-10-19T02:19:26;99392.53;;;7.59;75.35
69780;BME280;57052;55.602;38.096;2023-10-19T02:21:54;99377.47;;;7.53;74.79
69780;BME280;57052;55.602;38.096;2023-10-19T02:24:24;99358.63;;;7.48;75.88
69780;BME280;57052;55.602;38.096;2023-10-19T02:26:55;99390.41;;;7.61;75.03
69780;BME280;57052;55.602;38.096;2023-10-19T02:29:21;99388.78;;;7.60;74.98
69780;BME280;57052;55.602;38.096;2023-10-19T02:31:47;99389.59;;;7.61;74.64
69780;BME280;57052;55.602;38.096;2023-10-19T02:34:14;99383.69;;;7.59;75.53
69780;BME280;57052;55.602;38.096;2023-10-19T02:36:44;99387.72;;;7.51;74.92
69780;BME280;57052;55.602;38.096;2023-10-19T02:39:12;99393.09;;;7.51;74.89
69780;BME280;57052;55.602;38.096;2023-10-19T02:41:44;99396.34;;;7.48;75.19
69780;BME280;57052;55.602;38.096;2023-10-19T02:44:21;99393.13;;;7.46;75.98
69780;BME280;57052;55.602;38.096;2023-10-19T02:46:52;99355.41;;;7.26;75.48
69780;BME280;57052;55.602;38.096;2023-10-19T02:49:24;99381.25;;;7.42;75.82
69780;BME280;57052;55.602;38.096;2023-10-19T02:51:52;99387.16;;;7.49;76.03
69780;BME280;57052;55.602;38.096;2023-10-19T02:54:20;99391.19;;;7.47;75.93
69780;BME280;57052;55.602;38.096;2023-10-19T02:56:55;99393.38;;;7.45;75.17
69780;BME280;57052;55.602;38.096;2023-10-19T02:59:26;99388.25;;;7.43;75.49
69780;BME280;57052;55.602;38.096;2023-10-19T03:01:56;99383.94;;;7.42;75.17
69780;BME280;57052;55.602;38.096;2023-10-19T03:04:33;99390.13;;;7.43;76.35
69780;BME280;57052;55.602;38.096;2023-10-19T03:07:05;99389.84;;;7.44;75.39
69780;BME280;57052;55.602;38.096;2023-10-19T03:09:31;99389.84;;;7.44;75.23
69780;BME280;57052;55.602;38.096;2023-10-19T03:12:04;99386.91;;;7.31;76.86
69780;BME280;57052;55.602;38.096;2023-10-19T03:14:34;99387.16;;;7.44;76.01
69780;BME280;57052;55.602;38.096;2023-10-19T03:17:00;99372.09;;;7.38;75.74
69780;BME280;57052;55.602;38.096;2023-10-19T03:19:26;99383.94;;;7.47;75.55
69780;BME280;57052;55.602;38.096;2023-10-19T03:21:53;99382.88;;;7.48;75.78
69780;BME280;57052;55.602;38.096;2023-10-19T03:24:20;99383.69;;;7.54;76.06
69780;BME280;57052;55.602;38.096;2023-10-19T03:27:05;99387.44;;;7.58;75.99
69780;BME280;57052;55.602;38.096;2023-10-19T03:29:39;99381.78;;;7.59;75.71
69780;BME280;57052;55.602;38.096;2023-10-19T03:32:06;99383.13;;;7.62;76.47
69780;BME280;57052;55.602;38.096;2023-10-19T03:34:33;99374.25;;;7.61;76.07
69780;BME280;57052;55.602;38.096;2023-10-19T03:36:59;99383.41;;;7.65;75.57
69780;BME280;57052;55.602;38.096;2023-10-19T03:39:33;99380.41;;;7.67;76.10
69780;BME280;57052;55.602;38.096;2023-10-19T03:42:04;99385.81;;;7.67;75.77
69780;BME280;57052;55.602;38.096;2023-10-19T03:44:34;99378.81;;;7.61;75.92
69780;BME280;57052;55.602;38.096;2023-10-19T03:47:17;99393.63;;;7.68;75.71
69780;BME280;57052;55.602;38.096;2023-10-19T03:49:50;99392.00;;;7.67;76.12
69780;BME280;57052;55.602;38.096;2023-10-19T03:52:16;99387.72;;;7.61;75.31
69780;BME280;57052;55.602;38.096;2023-10-19T03:54:42;99393.09;;;7.66;75.92
69780;BME280;57052;55.602;38.096;2023-10-19T03:57:17;99396.31;;;7.68;75.54
69780;BME280;57052;55.602;38.096;2023-10-19T03:59:47;99381.78;;;7.59;76.10
69780;BME280;57052;55.602;38.096;2023-10-19T04:02:16;99396.31;;;7.68;76.02
69780;BME280;57052;55.602;38.096;2023-10-19T04:04:49;99397.13;;;7.69;75.28
69780;BME280;57052;55.602;38.096;2023-10-19T04:07:16;99393.34;;;7.70;76.50
69780;BME280;57052;55.602;38.096;2023-10-19T04:09:55;99396.31;;;7.68;75.83
69780;BME280;57052;55.602;38.096;2023-10-19T04:12:35;99379.06;;;7.64;75.74
69780;BME280;57052;55.602;38.096;2023-10-19T04:15:03;99399.28;;;7.67;76.07
69780;BME280;57052;55.602;38.096;2023-10-19T04:17:35;99397.41;;;7.67;75.95
69780;BME280;57052;55.602;38.096;2023-10-19T04:20:06;99399.56;;;7.70;75.85
69780;BME280;57052;55.602;38.096;2023-10-19T04:22:51;99402.78;;;7.72;76.09
69780;BME280;57052;55.602;38.096;2023-10-19T04:25:18;99388.50;;;7.67;76.04
69780;BME280;57052;55.602;38.096;2023-10-19T04:27:45;99410.56;;;7.79;75.72
69780;BME280;57052;55.602;38.096;2023-10-19T04:30:12;99411.38;;;7.80;76.34
69780;BME280;57052;55.602;38.096;2023-10-19T04:32:45;99411.91;;;7.82;75.88
69780;BME280;57052;55.602;38.096;2023-10-19T04:35:12;99402.22;;;7.81;76.29
69780;BME280;57052;55.602;38.096;2023-10-19T04:37:47;99410.03;;;7.82;75.76
69780;BME280;57052;55.602;38.096;2023-10-19T04:40:13;99403.81;;;7.87;75.53
69780;BME280;57052;55.602;38.096;2023-10-19T04:42:39;99400.59;;;7.85;76.25
69780;BME280;57052;55.602;38.096;2023-10-19T04:45:05;99393.88;;;7.87;75.90
69780;BME280;57052;55.602;38.096;2023-10-19T04:47:32;99401.41;;;7.90;76.38
69780;BME280;57052;55.602;38.096;2023-10-19T04:50:02;99407.88;;;7.89;75.71
69780;BME280;57052;55.602;38.096;2023-10-19T04:52:30;99406.50;;;7.92;75.59
69780;BME280;57052;55.602;38.096;2023-10-19T04:54:57;99401.94;;;7.92;75.86
69780;BME280;57052;55.602;38.096;2023-10-19T04:57:23;99387.13;;;7.85;75.52
69780;BME280;57052;55.602;38.096;2023-10-19T04:59:49;99401.41;;;7.95;75.69
69780;BME280;57052;55.602;38.096;2023-10-19T05:02:15;99389.28;;;7.88;75.55
69780;BME280;57052;55.602;38.096;2023-10-19T05:04:42;99402.47;;;7.99;75.78
69780;BME280;57052;55.602;38.096;2023-10-19T05:07:09;99404.91;;;8.01;76.37
69780;BME280;57052;55.602;38.096;2023-10-19T05:09:38;99392.78;;;7.98;75.91
69780;BME280;57052;55.602;38.096;2023-10-19T05:12:06;99400.31;;;8.01;76.05
69780;BME280;57052;55.602;38.096;2023-10-19T05:14:36;99403.00;;;8.06;76.32
69780;BME280;57052;55.602;38.096;2023-10-19T05:17:02;99407.81;;;8.09;75.82
69780;BME280;57052;55.602;38.096;2023-10-19T05:19:35;99405.41;;;8.08;76.15
69780;BME280;57052;55.602;38.096;2023-10-19T05:22:02;99396.28;;;7.99;76.11
69780;BME280;57052;55.602;38.096;2023-10-19T05:24:28;99413.78;;;8.06;75.28
69780;BME280;57052;55.602;38.096;2023-10-19T05:26:55;99409.19;;;8.07;75.88
69780;BME280;57052;55.602;38.096;2023-10-19T05:29:22;99402.72;;;8.03;76.00
69780;BME280;57052;55.602;38.096;2023-10-19T05:31:50;99411.63;;;8.08;75.54
69780;BME280;57052;55.602;38.096;2023-10-19T05:34:22;99415.38;;;8.12;75.88
69780;BME280;57052;55.602;38.096;2023-10-19T05:36:48;99410.53;;;8.09;75.82
69780;BME280;57052;55.602;38.096;2023-10-19T05:39:17;99414.03;;;8.15;76.02
69780;BME280;57052;55.602;38.096;2023-10-19T05:41:43;99416.19;;;8.18;75.84
69780;BME280;57052;55.602;38.096;2023-10-19T05:44:09;99416.69;;;8.20;76.21
69780;BME280;57052;55.602;38.096;2023-10-19T05:46:35;99420.75;;;8.22;76.46
69780;BME280;57052;55.602;38.096;2023-10-19T05:49:02;99422.63;;;8.22;75.73
69780;BME280;57052;55.602;38.096;2023-10-19T05:51:32;99418.03;;;8.22;75.78
69780;BME280;57052;55.602;38.096;2023-10-19T05:53:58;99425.06;;;8.23;75.83
69780;BME280;57052;55.602;38.096;2023-10-19T05:56:30;99423.97;;;8.24;75.92
69780;BME280;57052;55.602;38.096;2023-10-19T05:58:57;99421.03;;;8.21;76.15
69780;BME280;57052;55.602;38.096;2023-10-19T06:01:24;99426.69;;;8.29;75.94
69780;BME280;57052;55.602;38.096;2023-10-19T06:03:51;99421.03;;;8.31;76.00
69780;BME280;57052;55.602;38.096;2023-10-19T06:06:19;99427.47;;;8.35;76.29
69780;BME280;57052;55.602;38.096;2023-10-19T06:08:46;99383.31;;;8.11;75.77
69780;BME280;57052;55.602;38.096;2023-10-19T06:11:11;99419.13;;;8.36;76.04
69780;BME280;57052;55.602;38.096;2023-10-19T06:13:37;99423.69;;;8.41;75.94
69780;BME280;57052;55.602;38.096;2023-10-19T06:16:03;99419.66;;;8.38;75.53
69780;BME280;57052;55.602;38.096;2023-10-19T06:18:29;99425.84;;;8.44;76.11
69780;BME280;57052;55.602;38.096;2023-10-19T06:20:55;99423.16;;;8.44;76.21
69780;BME280;57052;55.602;38.096;2023-10-19T06:23:21;99417.47;;;8.46;75.43
69780;BME280;57052;55.602;38.096;2023-10-19T06:25:47;99422.06;;;8.45;75.93
69780;BME280;57052;55.602;38.096;2023-10-19T06:28:13;99433.63;;;8.56;75.89
69780;BME280;57052;55.602;38.096;2023-10-19T06:30:39;99425.81;;;8.54;75.78
69780;BME280;57052;55.602;38.096;2023-10-19T06:33:06;99419.31;;;8.55;75.26
69780;BME280;57052;55.602;38.096;2023-10-19T06:35:33;99387.31;;;8.33;75.51
69780;BME280;57052;55.602;38.096;2023-10-19T06:38:02;99435.19;;;8.62;75.42
69780;BME280;57052;55.602;38.096;2023-10-19T06:40:30;99434.13;;;8.63;75.42
69780;BME280;57052;55.602;38.096;2023-10-19T06:42:57;99435.16;;;8.67;75.08
69780;BME280;57052;55.602;38.096;2023-10-19T06:45:23;99431.94;;;8.70;75.64
69780;BME280;57052;55.602;38.096;2023-10-19T06:47:51;99424.66;;;8.70;74.91
69780;BME280;57052;55.602;38.096;2023-10-19T06:50:20;99428.16;;;8.71;74.68
69780;BME280;57052;55.602;38.096;2023-10-19T06:52:46;99424.09;;;8.73;74.95
69780;BME280;57052;55.602;38.096;2023-10-19T06:55:13;99432.72;;;8.75;74.99
69780;BME280;57052;55.602;38.096;2023-10-19T06:57:47;99420.06;;;8.71;75.09
69780;BME280;57052;55.602;38.096;2023-10-19T07:00:14;99424.59;;;8.80;75.42
69780;BME280;57052;55.602;38.096;2023-10-19T07:02:43;99425.13;;;8.82;75.27
69780;BME280;57052;55.602;38.096;2023-10-19T07:05:10;99409.50;;;8.74;74.93
69780;BME280;57052;55.602;38.096;2023-10-19T07:07:37;99432.38;;;8.87;75.25
69780;BME280;57052;55.602;38.096;2023-10-19T07:10:06;99422.41;;;8.87;75.49
69780;BME280;57052;55.602;38.096;2023-10-19T07:12:34;99427.25;;;8.90;74.89
69780;BME280;57052;55.602;38.096;2023-10-19T07:15:00;99430.75;;;8.91;75.21
69780;BME280;57052;55.602;38.096;2023-10-19T07:17:29;99431.56;;;8.91;75.21
69780;BME280;57052;55.602;38.096;2023-10-19T07:19:55;99400.06;;;8.72;74.82
69780;BME280;57052;55.602;38.096;2023-10-19T07:22:22;99436.16;;;8.91;74.41
69780;BME280;57052;55.602;38.096;2023-10-19T07:24:48;99431.59;;;8.86;74.71
69780;BME280;57052;55.602;38.096;2023-10-19T07:27:14;99433.72;;;8.89;74.83
69780;BME280;57052;55.602;38.096;2023-10-19T07:29:50;99441.03;;;8.89;74.37
69780;BME280;57052;55.602;38.096;2023-10-19T07:32:17;99448.03;;;8.90;74.96
69780;BME280;57052;55.602;38.096;2023-10-19T07:34:42;99446.69;;;8.87;74.44
69780;BME280;57052;55.602;38.096;2023-10-19T07:37:10;99449.38;;;8.87;74.20
69780;BME280;57052;55.602;38.096;2023-10-19T07:39:45;99434.34;;;8.76;74.33
69780;BME280;57052;55.602;38.096;2023-10-19T07:42:11;99444.00;;;8.82;74.27
69780;BME280;57052;55.602;38.096;2023-10-19T07:44:37;99442.13;;;8.83;74.45
69780;BME280;57052;55.602;38.096;2023-10-19T07:47:02;99440.78;;;8.80;74.46
69780;BME280;57052;55.602;38.096;2023-10-19T07:49:28;99447.78;;;8.86;73.92
69780;BME280;57052;55.602;38.096;2023-10-19T07:51:54;99450.72;;;8.90;74.46
69780;BME280;57052;55.602;38.096;2023-10-19T07:54:21;99435.66;;;8.84;74.06
69780;BME280;57052;55.602;38.096;2023-10-19T07:56:47;99443.44;;;8.90;73.76
69780;BME280;57052;55.602;38.096;2023-10-19T07:59:15;99440.22;;;8.88;73.79
69780;BME280;57052;55.602;38.096;2023-10-19T08:09:03;99445.75;;;9.12;74.23
69780;BME280;57052;55.602;38.096;2023-10-19T08:11:30;99445.44;;;9.24;74.44
69780;BME280;57052;55.602;38.096;2023-10-19T08:13:56;99453.72;;;9.32;73.82
69780;BME280;57052;55.602;38.096;2023-10-19T08:16:22;99442.09;;;9.37;73.49
69780;BME280;57052;55.602;38.096;2023-10-19T08:18:49;99442.59;;;9.44;73.55
69780;BME280;57052;55.602;38.096;2023-10-19T08:21:15;99439.81;;;9.54;72.77
69780;BME280;57052;55.602;38.096;2023-10-19T08:23:40;99451.09;;;9.61;72.67
69780;BME280;57052;55.602;38.096;2023-10-19T08:26:07;99445.19;;;9.59;71.78
69780;BME280;57052;55.602;38.096;2023-10-19T08:28:33;99443.63;;;9.48;71.07
69780;BME280;57052;55.602;38.096;2023-10-19T08:30:59;99411.88;;;9.30;70.87
69780;BME280;57052;55.602;38.096;2023-10-19T08:33:27;99450.03;;;9.57;70.89
69780;BME280;57052;55.602;38.096;2023-10-19T08:35:53;99450.31;;;9.55;71.75
69780;BME280;57052;55.602;38.096;2023-10-19T08:38:28;99453.75;;;9.66;71.68
69780;BME280;57052;55.602;38.096;2023-10-19T08:40:54;99459.41;;;9.69;71.42
69780;BME280;57052;55.602;38.096;2023-10-19T08:43:20;99448.91;;;9.63;71.35
69780;BME280;57052;55.602;38.096;2023-10-19T08:45:47;99456.47;;;9.66;71.15
69780;BME280;57052;55.602;38.096;2023-10-19T08:48:13;99453.25;;;9.64;70.98
69780;BME280;57052;55.602;38.096;2023-10-19T08:50:39;99453.75;;;9.66;71.84
69780;BME280;57052;55.602;38.096;2023-10-19T08:53:08;99458.63;;;9.69;71.22
69780;BME280;57052;55.602;38.096;2023-10-19T08:55:34;99444.31;;;9.63;71.14
69780;BME280;57052;55.602;38.096;2023-10-19T08:58:01;99463.22;;;9.68;70.98
69780;BME280;57052;55.602;38.096;2023-10-19T09:00:28;99452.13;;;9.65;70.53
69780;BME280;57052;55.602;38.096;2023-10-19T09:02:59;99457.53;;;9.65;70.05
69780;BME280;57052;55.602;38.096;2023-10-19T09:05:25;99456.50;;;9.61;70.22
69780;BME280;57052;55.602;38.096;2023-10-19T09:07:52;99462.09;;;9.69;70.16
69780;BME280;57052;55.602;38.096;2023-10-19T09:10:22;99461.31;;;9.69;70.37
69780;BME280;57052;55.602;38.096;2023-10-19T09:13:03;99440.84;;;9.58;69.52
69780;BME280;57052;55.602;38.096;2023-10-19T09:15:30;99453.16;;;9.74;70.30
69780;BME280;57052;55.602;38.096;2023-10-19T09:20:45;99463.09;;;9.84;70.85
69780;BME280;57052;55.602;38.096;2023-10-19T09:23:30;99466.00;;;9.87;70.55
69780;BME280;57052;55.602;38.096;2023-10-19T09:25:58;99464.41;;;9.86;70.18
69780;BME280;57052;55.602;38.096;2023-10-19T09:28:24;99468.44;;;9.89;70.12
69780;BME280;57052;55.602;38.096;2023-10-19T09:30:52;99460.91;;;9.86;70.20
69780;BME280;57052;55.602;38.096;2023-10-19T09:33:18;99463.03;;;9.89;70.41
69780;BME280;57052;55.602;38.096;2023-10-19T09:35:46;99475.69;;;9.93;70.30
69780;BME280;57052;55.602;38.096;2023-10-19T09:38:15;99472.69;;;9.95;70.55
69780;BME280;57052;55.602;38.096;2023-10-19T09:40:41;99477.56;;;9.98;70.69
69780;BME280;57052;55.602;38.096;2023-10-19T09:43:15;99470.53;;;9.97;70.50
69780;BME280;57052;55.602;38.096;2023-10-19T09:45:45;99467.00;;;10.01;70.20
69780;BME280;57052;55.602;38.096;2023-10-19T09:48:15;99473.72;;;10.04;70.17
69780;BME280;57052;55.602;38.096;2023-10-19T09:50:45;99450.09;;;9.86;69.51
69780;BME280;57052;55.602;38.096;2023-10-19T09:53:18;99455.44;;;9.91;69.76
69780;BME280;57052;55.602;38.096;2023-10-19T09:55:44;99473.22;;;10.02;69.59
69780;BME280;57052;55.602;38.096;2023-10-19T09:58:16;99473.22;;;10.02;69.39
69780;BME280;57052;55.602;38.096;2023-10-19T10:00:46;99474.53;;;10.04;69.72
69780;BME280;57052;55.602;38.096;2023-10-19T10:03:46;99468.06;;;10.00;69.93
69780;BME280;57052;55.602;38.096;2023-10-19T10:08:55;99463.75;;;9.99;69.93
69780;BME280;57052;55.602;38.096;2023-10-19T10:11:26;99473.47;;;10.00;69.70
69780;BME280;57052;55.602;38.096;2023-10-19T10:13:54;99471.91;;;9.94;69.86
69780;BME280;57052;55.602;38.096;2023-10-19T10:16:25;99481.72;;;9.85;69.11
69780;BME280;57052;55.602;38.096;2023-10-19T10:18:57;99487.19;;;9.75;69.43
69780;BME280;57052;55.602;38.096;2023-10-19T10:21:27;99491.31;;;9.67;69.34
69780;BME280;57052;55.602;38.096;2023-10-19T10:23:55;99485.72;;;9.59;69.54
69780;BME280;57052;55.602;38.096;2023-10-19T10:26:23;99487.63;;;9.53;69.96
69780;BME280;57052;55.602;38.096;2023-10-19T10:31:47;99489.03;;;9.46;70.80
69780;BME280;57052;55.602;38.096;2023-10-19T10:37:08;99482.28;;;9.43;71.14
69780;BME280;57052;55.602;38.096;2023-10-19T10:39:36;99493.88;;;9.49;71.00
69780;BME280;57052;55.602;38.096;2023-10-19T10:42:04;99483.06;;;9.49;70.88
69780;BME280;57052;55.602;38.096;2023-10-19T10:44:46;99486.84;;;9.48;70.79
69780;BME280;57052;55.602;38.096;2023-10-19T10:47:20;99485.19;;;9.52;71.00
69780;BME280;57052;55.602;38.096;2023-10-19T10:52:24;99477.34;;;9.55;71.51
69780;BME280;57052;55.602;38.096;2023-10-19T10:54:50;99489.66;;;9.72;71.40
69780;BME280;57052;55.602;38.096;2023-10-19T10:57:16;99485.00;;;9.77;71.55
69780;BME280;57052;55.602;38.096;2023-10-19T10:59:41;99476.34;;;9.80;71.50
69780;BME280;57052;55.602;38.096;2023-10-19T11:02:19;99482.22;;;9.87;71.71
69780;BME280;57052;55.602;38.096;2023-10-19T11:04:47;99481.63;;;9.95;71.51
69780;BME280;57052;55.602;38.096;2023-10-19T11:07:19;99485.41;;;9.99;71.26
69780;BME280;57052;55.602;38.096;2023-10-19T11:09:46;99488.31;;;10.03;71.11
69780;BME280;57052;55.602;38.096;2023-10-19T11:12:12;99486.13;;;10.05;70.88
69780;BME280;57052;55.602;38.096;2023-10-19T11:14:55;99494.84;;;10.02;71.04
69780;BME280;57052;55.602;38.096;2023-10-19T11:17:21;99495.06;;;10.05;71.24
69780;BME280;57052;55.602;38.096;2023-10-19T11:19:55;99484.53;;;10.04;71.19
69780;BME280;57052;55.602;38.096;2023-10-19T11:22:22;99489.13;;;10.03;70.88
69780;BME280;57052;55.602;38.096;2023-10-19T11:24:50;99473.56;;;9.90;71.10
69780;BME280;57052;55.602;38.096;2023-10-19T11:27:27;99487.38;;;9.89;70.89
69780;BME280;57052;55.602;38.096;2023-10-19T11:29:57;99494.63;;;9.93;70.89
69780;BME280;57052;55.602;38.096;2023-10-19T11:32:24;99486.56;;;9.88;71.22
69780;BME280;57052;55.602;38.096;2023-10-19T11:34:52;99496.25;;;9.94;71.37
69780;BME280;57052;55.602;38.096;2023-10-19T11:37:18;99495.44;;;9.94;71.22
69780;BME280;57052;55.602;38.096;2023-10-19T11:39:44;99493.53;;;9.94;71.04
69780;BME280;57052;55.602;38.096;2023-10-19T11:42:11;99481.41;;;9.92;71.14
69780;BME280;57052;55.602;38.096;2023-10-19T11:44:38;99478.69;;;9.92;71.43
69780;BME280;57052;55.602;38.096;2023-10-19T11:47:05;99483.25;;;9.96;71.40
69780;BME280;57052;55.602;38.096;2023-10-19T11:49:30;99484.84;;;9.97;71.67
69780;BME280;57052;55.602;38.096;2023-10-19T11:51:56;99479.72;;;9.96;71.47
69780;BME280;57052;55.602;38.096;2023-10-19T11:54:22;99482.44;;;9.96;71.00
69780;BME280;57052;55.602;38.096;2023-10-19T11:56:48;99480.03;;;9.94;71.05
69780;BME280;57052;55.602;38.096;2023-10-19T11:59:14;99487.31;;;9.94;71.25
69780;BME280;57052;55.602;38.096;2023-10-19T12:01:41;99483.81;;;9.93;70.99
69780;BME280;57052;55.602;38.096;2023-10-19T12:04:08;99487.31;;;9.94;70.96
69780;BME280;57052;55.602;38.096;2023-10-19T12:06:34;99482.47;;;9.91;71.10
69780;BME280;57052;55.602;38.096;2023-10-19T12:09:00;99481.66;;;9.90;71.34
69780;BME280;57052;55.602;38.096;2023-10-19T12:11:43;99479.47;;;9.92;71.12
69780;BME280;57052;55.602;38.096;2023-10-19T12:14:10;99486.50;;;9.93;71.01
69780;BME280;57052;55.602;38.096;2023-10-19T12:16:41;99490.28;;;9.92;70.94
69780;BME280;57052;55.602;38.096;2023-10-19T12:19:06;99490.28;;;9.92;71.03
69780;BME280;57052;55.602;38.096;2023-10-19T12:21:35;99492.47;;;9.90;71.00
69780;BME280;57052;55.602;38.096;2023-10-19T12:24:03;99488.19;;;9.89;71.02
69780;BME280;57052;55.602;38.096;2023-10-19T12:26:30;99495.47;;;9.89;70.48
69780;BME280;57052;55.602;38.096;2023-10-19T12:28:56;99491.44;;;9.86;70.89
69780;BME280;57052;55.602;38.096;2023-10-19T12:31:21;99488.22;;;9.84;70.39
69780;BME280;57052;55.602;38.096;2023-10-19T12:33:49;99484.44;;;9.80;70.20
69780;BME280;57052;55.602;38.096;2023-10-19T12:36:14;99491.75;;;9.80;70.33
69780;BME280;57052;55.602;38.096;2023-10-19T12:39:00;99486.38;;;9.75;70.69
69780;BME280;57052;55.602;38.096;2023-10-19T12:41:26;99496.63;;;9.78;70.66
69780;BME280;57052;55.602;38.096;2023-10-19T12:43:53;99493.72;;;9.74;71.02
69780;BME280;57052;55.602;38.096;2023-10-19T12:46:28;99506.13;;;9.75;71.18
69780;BME280;57052;55.602;38.096;2023-10-19T12:48:55;99485.91;;;9.67;71.09
69780;BME280;57052;55.602;38.096;2023-10-19T12:51:25;99487.28;;;9.65;71.37
69780;BME280;57052;55.602;38.096;2023-10-19T12:53:51;99497.47;;;9.73;71.43
69780;BME280;57052;55.602;38.096;2023-10-19T12:56:18;99496.66;;;9.73;71.54
69780;BME280;57052;55.602;38.096;2023-10-19T12:58:44;99481.91;;;9.60;72.02
69780;BME280;57052;55.602;38.096;2023-10-19T13:01:09;99501.84;;;9.69;71.58
69780;BME280;57052;55.602;38.096;2023-10-19T13:03:43;99489.97;;;9.65;71.39
69780;BME280;57052;55.602;38.096;2023-10-19T13:06:12;99476.28;;;9.56;71.62
69780;BME280;57052;55.602;38.096;2023-10-19T13:08:38;99485.72;;;9.59;71.68
69780;BME280;57052;55.602;38.096;2023-10-19T13:11:09;99498.59;;;9.67;71.72
69780;BME280;57052;55.602;38.096;2023-10-19T13:13:35;99497.53;;;9.68;72.05
69780;BME280;57052;55.602;38.096;2023-10-19T13:16:05;99495.16;;;9.61;72.10
69780;BME280;57052;55.602;38.096;2023-10-19T13:18:37;99497.00;;;9.66;72.33
69780;BME280;57052;55.602;38.096;2023-10-19T13:21:05;99483.00;;;9.59;72.41
69780;BME280;57052;55.602;38.096;2023-10-19T13:23:32;99496.47;;;9.64;72.22
69780;BME280;57052;55.602;38.096;2023-10-19T13:26:02;99492.19;;;9.58;72.44
69780;BME280;57052;55.602;38.096;2023-10-19T13:28:33;99508.63;;;9.66;72.84
69780;BME280;57052;55.602;38.096;2023-10-19T13:30:59;99517.00;;;9.65;72.71
69780;BME280;57052;55.602;38.096;2023-10-19T13:33:24;99515.41;;;9.64;72.57
69780;BME280;57052;55.602;38.096;2023-10-19T13:35:50;99513.25;;;9.61;72.32
69780;BME280;57052;55.602;38.096;2023-10-19T13:38:17;99519.72;;;9.60;72.45